• Join FlightAware (Why Join?)
  • Login
  • US Flag 
10:48AM EDT


 

Airport Tracker/Info


-or-


 

Live Flight TrackerFlight Track Log ✈ AFR1619 ✈ 27-Apr-2013 ✈ EDDF / FRA - LFPG / CDG

Flight Track Log - Related Links

Times and Time Zones

All times are in EDT time to prevent confusion due to time zone crossing. See the AFR1619 flight status page for this flight to view local times or setup timezone preferences in your user account.

Time Position Orientation Groundspeed Altitude Reporting Facility
EDT Latitude Longitude Course Direction KTS MPH feet Rate Location/Type
06:23AM 49.8643 7.4287 258° West  Level Estimated
06:24AM 49.8531 7.3547 257° West  Level Estimated
06:25AM 49.8419 7.2807 257° West  Level Estimated
06:26AM 49.8306 7.2067 257° West  Level Estimated
06:27AM 49.8193 7.1328 257° West  Level Estimated
06:28AM 49.8079 7.0589 257° West  Level Estimated
06:29AM 49.7965 6.9851 257° West  Level Estimated
06:30AM 49.7850 6.9113 256° West  Level Estimated
06:31AM 49.7735 6.8375 256° West  Level Estimated
06:32AM 49.7620 6.7637 256° West  Level Estimated
06:33AM 49.7504 6.6900 256° West  Level Estimated
06:34AM 49.7387 6.6163 256° West  Level Estimated
06:35AM 49.7270 6.5427 256° West  Level Estimated
06:36AM 49.7153 6.4691 256° West  Level Estimated
06:37AM 49.7035 6.3955 256° West  Level Estimated
06:38AM 49.6916 6.3220 256° West  Level Estimated
06:39AM 49.6797 6.2485 256° West  Level Estimated
06:40AM 49.6678 6.1750 256° West  Level Estimated
06:41AM 49.6552 6.0978 256° West  Level Estimated
06:42AM 49.6426 6.0207 256° West  Level Estimated
06:43AM 49.6299 5.9436 256° West  Level Estimated
06:44AM 49.6171 5.8665 256° West  Level Estimated
06:45AM 49.6043 5.7895 256° West  Level Estimated
06:46AM 49.5915 5.7125 256° West  Level Estimated
06:47AM 49.5786 5.6355 256° West  Level Estimated
06:48AM 49.5656 5.5586 255° West  Level Estimated
06:49AM 49.5526 5.4818 255° West  Level Estimated
06:50AM 49.5395 5.4049 255° West  Level Estimated
06:51AM 49.5264 5.3281 255° West  Level Estimated
06:52AM 49.5133 5.2514 255° West  Level Estimated
06:53AM 49.5001 5.1747 255° West  Level Estimated
06:54AM 49.4868 5.0981 255° West  Level Estimated
06:55AM 49.4735 5.0214 255° West  Level Estimated
06:56AM 49.4586 4.9361 255° West  Level Estimated
06:57AM 49.4436 4.8508 255° West  Level Estimated
06:58AM 49.4286 4.7656 255° West  Level Estimated
06:59AM 49.4136 4.6804 255° West  Level Estimated
07:00AM 49.3984 4.5953 255° West  Level Estimated
07:01AM 49.3832 4.5103 255° West  Level Estimated
07:02AM 49.3679 4.4253 255° West  Level Estimated
07:03AM 49.3526 4.3403 255° West  Level Estimated
07:04AM 49.3372 4.2554 254° West  Level Estimated
07:05AM 49.3218 4.1705 254° West  Level Estimated
07:06AM 49.3063 4.0857 254° West  Level Estimated
07:07AM 49.2907 4.0010 254° West  Level Estimated
07:08AM 49.2750 3.9163 254° West  Level Estimated
07:09AM 49.2593 3.8317 254° West  Level Estimated
07:10AM 49.2436 3.7471 254° West  Level Estimated
07:11AM 49.2290 3.6692 254° West  Level Estimated
07:12AM 49.2144 3.5914 254° West  Level Estimated
07:13AM 49.1997 3.5136 254° West  Level Estimated
07:14AM 49.1850 3.4359 254° West  Level Estimated
07:15AM 49.1702 3.3582 254° West  Level Estimated
07:16AM 49.1554 3.2806 254° West  Level Estimated
07:17AM 49.1405 3.2030 254° West  Level Estimated
07:18AM 49.1255 3.1255 254° West  Level Estimated
07:19AM 49.1106 3.0480 254° West  Level Estimated
07:20AM 49.0955 2.9706 254° West  Level Estimated
07:21AM 49.0804 2.8932 253° West  Level Estimated
07:22AM 49.0653 2.8158 253° West  Level Estimated
07:23AM 49.0501 2.7385 253° West  Level Estimated
07:24AM 49.0348 2.6613 253° West  Level Estimated
07:25AM 49.0196 2.5841 253° West  Level Estimated
07:26AM 49.0128 2.5500 253° West  Level Estimated
07:27AM 49.0128 2.5500 180° South  Level Estimated
07:28AM 49.0128 2.5500 180° South  Level Estimated
07:29AM 49.0128 2.5500 180° South  Level Estimated
07:30AM 49.0128 2.5500 180° South  Level Estimated
07:31AM 49.0128 2.5500 180° South  Level Estimated
07:32AM 49.0128 2.5500 180° South  Level Estimated
07:33AM 49.0128 2.5500 180° South  Level Estimated
07:34AM 49.0128 2.5500 180° South  Level Estimated
07:35AM 49.0128 2.5500 180° South  Level Estimated
07:36AM 49.0128 2.5500 180° South  Level Estimated
07:37AM 49.0128 2.5500 180° South  Level Estimated
07:38AM 49.0128 2.5500 180° South  Level Estimated
07:39AM 49.0128 2.5500 180° South  Level Estimated
07:40AM 49.0128 2.5500 180° South  Level Estimated
07:41AM 49.0128 2.5500 180° South  Level Estimated